sensor_id;sensor_type;location;lat;lon;timestamp;P1;durP1;ratioP1;P2;durP2;ratioP2
54125;SDS011;40360;52.992;6.796;2023-12-20T00:01:04;12.40;;;2.63;;
54125;SDS011;40360;52.992;6.796;2023-12-20T00:03:30;16.58;;;2.22;;
54125;SDS011;40360;52.992;6.796;2023-12-20T00:05:55;11.40;;;3.05;;
54125;SDS011;40360;52.992;6.796;2023-12-20T00:08:24;9.75;;;1.95;;
54125;SDS011;40360;52.992;6.796;2023-12-20T00:10:50;16.02;;;2.17;;
54125;SDS011;40360;52.992;6.796;2023-12-20T00:13:15;10.38;;;2.10;;
54125;SDS011;40360;52.992;6.796;2023-12-20T00:15:41;14.52;;;3.45;;
54125;SDS011;40360;52.992;6.796;2023-12-20T00:18:07;12.45;;;2.88;;
54125;SDS011;40360;52.992;6.796;2023-12-20T00:20:32;20.02;;;3.05;;
54125;SDS011;40360;52.992;6.796;2023-12-20T00:22:58;10.02;;;2.20;;
54125;SDS011;40360;52.992;6.796;2023-12-20T00:25:24;14.07;;;2.25;;
54125;SDS011;40360;52.992;6.796;2023-12-20T00:27:50;10.52;;;2.35;;
54125;SDS011;40360;52.992;6.796;2023-12-20T00:30:16;12.63;;;2.80;;
54125;SDS011;40360;52.992;6.796;2023-12-20T00:32:41;12.68;;;2.47;;
54125;SDS011;40360;52.992;6.796;2023-12-20T00:35:15;11.48;;;1.95;;
54125;SDS011;40360;52.992;6.796;2023-12-20T00:37:42;18.55;;;3.90;;
54125;SDS011;40360;52.992;6.796;2023-12-20T00:40:08;12.18;;;2.47;;
54125;SDS011;40360;52.992;6.796;2023-12-20T00:42:34;17.50;;;2.30;;
54125;SDS011;40360;52.992;6.796;2023-12-20T00:45:01;11.60;;;2.38;;
54125;SDS011;40360;52.992;6.796;2023-12-20T00:47:27;13.90;;;2.47;;
54125;SDS011;40360;52.992;6.796;2023-12-20T00:49:53;16.15;;;3.30;;
54125;SDS011;40360;52.992;6.796;2023-12-20T00:52:18;15.27;;;3.17;;
54125;SDS011;40360;52.992;6.796;2023-12-20T00:54:44;19.73;;;3.20;;
54125;SDS011;40360;52.992;6.796;2023-12-20T00:57:10;17.92;;;3.13;;
54125;SDS011;40360;52.992;6.796;2023-12-20T00:59:36;14.38;;;2.72;;
54125;SDS011;40360;52.992;6.796;2023-12-20T01:02:01;13.40;;;2.78;;
54125;SDS011;40360;52.992;6.796;2023-12-20T01:04:27;11.02;;;3.10;;
54125;SDS011;40360;52.992;6.796;2023-12-20T01:06:53;10.25;;;2.50;;
54125;SDS011;40360;52.992;6.796;2023-12-20T01:09:19;22.67;;;3.38;;
54125;SDS011;40360;52.992;6.796;2023-12-20T01:11:45;13.98;;;3.47;;
54125;SDS011;40360;52.992;6.796;2023-12-20T01:14:14;16.63;;;2.55;;
54125;SDS011;40360;52.992;6.796;2023-12-20T01:16:40;18.38;;;4.05;;
54125;SDS011;40360;52.992;6.796;2023-12-20T01:19:09;15.07;;;3.22;;
54125;SDS011;40360;52.992;6.796;2023-12-20T01:21:34;12.00;;;2.97;;
54125;SDS011;40360;52.992;6.796;2023-12-20T01:24:00;15.38;;;2.67;;
54125;SDS011;40360;52.992;6.796;2023-12-20T01:26:26;11.38;;;2.60;;
54125;SDS011;40360;52.992;6.796;2023-12-20T01:28:53;17.05;;;2.92;;
54125;SDS011;40360;52.992;6.796;2023-12-20T01:31:19;18.63;;;3.17;;
54125;SDS011;40360;52.992;6.796;2023-12-20T01:33:44;21.17;;;4.03;;
54125;SDS011;40360;52.992;6.796;2023-12-20T01:36:10;15.85;;;3.10;;
54125;SDS011;40360;52.992;6.796;2023-12-20T01:38:36;12.40;;;2.85;;
54125;SDS011;40360;52.992;6.796;2023-12-20T01:41:02;14.20;;;2.85;;
54125;SDS011;40360;52.992;6.796;2023-12-20T01:43:29;18.77;;;3.38;;
54125;SDS011;40360;52.992;6.796;2023-12-20T01:45:55;13.95;;;4.45;;
54125;SDS011;40360;52.992;6.796;2023-12-20T01:48:25;14.38;;;2.63;;
54125;SDS011;40360;52.992;6.796;2023-12-20T01:50:52;13.95;;;2.95;;
54125;SDS011;40360;52.992;6.796;2023-12-20T01:53:20;20.00;;;4.55;;
54125;SDS011;40360;52.992;6.796;2023-12-20T01:55:49;13.95;;;2.70;;
54125;SDS011;40360;52.992;6.796;2023-12-20T01:58:17;17.55;;;3.75;;
54125;SDS011;40360;52.992;6.796;2023-12-20T02:00:43;19.45;;;3.60;;
54125;SDS011;40360;52.992;6.796;2023-12-20T02:03:09;17.75;;;2.72;;
54125;SDS011;40360;52.992;6.796;2023-12-20T02:05:36;17.05;;;3.30;;
54125;SDS011;40360;52.992;6.796;2023-12-20T02:08:04;17.33;;;3.83;;
54125;SDS011;40360;52.992;6.796;2023-12-20T02:10:30;15.70;;;3.38;;
54125;SDS011;40360;52.992;6.796;2023-12-20T02:12:56;13.38;;;2.88;;
54125;SDS011;40360;52.992;6.796;2023-12-20T02:15:22;20.15;;;3.85;;
54125;SDS011;40360;52.992;6.796;2023-12-20T02:17:48;19.52;;;3.53;;
54125;SDS011;40360;52.992;6.796;2023-12-20T02:20:14;12.05;;;4.13;;
54125;SDS011;40360;52.992;6.796;2023-12-20T02:22:40;14.00;;;2.85;;
54125;SDS011;40360;52.992;6.796;2023-12-20T02:25:06;23.15;;;3.60;;
54125;SDS011;40360;52.992;6.796;2023-12-20T02:27:32;13.45;;;2.80;;
54125;SDS011;40360;52.992;6.796;2023-12-20T02:29:58;10.65;;;2.92;;
54125;SDS011;40360;52.992;6.796;2023-12-20T02:32:24;22.40;;;4.55;;
54125;SDS011;40360;52.992;6.796;2023-12-20T02:34:54;15.63;;;3.15;;
54125;SDS011;40360;52.992;6.796;2023-12-20T02:37:20;19.92;;;4.25;;
54125;SDS011;40360;52.992;6.796;2023-12-20T02:39:46;17.92;;;3.53;;
54125;SDS011;40360;52.992;6.796;2023-12-20T02:42:12;20.58;;;4.35;;
54125;SDS011;40360;52.992;6.796;2023-12-20T02:44:38;23.02;;;3.40;;
54125;SDS011;40360;52.992;6.796;2023-12-20T02:47:04;18.50;;;3.72;;
54125;SDS011;40360;52.992;6.796;2023-12-20T02:49:29;14.13;;;3.30;;
54125;SDS011;40360;52.992;6.796;2023-12-20T02:51:55;23.48;;;4.13;;
54125;SDS011;40360;52.992;6.796;2023-12-20T02:54:21;28.30;;;4.00;;
54125;SDS011;40360;52.992;6.796;2023-12-20T02:56:47;16.50;;;4.32;;
54125;SDS011;40360;52.992;6.796;2023-12-20T02:59:13;15.73;;;5.28;;
54125;SDS011;40360;52.992;6.796;2023-12-20T03:01:42;15.77;;;3.30;;
54125;SDS011;40360;52.992;6.796;2023-12-20T03:04:09;18.05;;;3.60;;
54125;SDS011;40360;52.992;6.796;2023-12-20T03:06:35;20.23;;;6.20;;
54125;SDS011;40360;52.992;6.796;2023-12-20T03:09:00;17.67;;;3.60;;
54125;SDS011;40360;52.992;6.796;2023-12-20T03:11:27;19.20;;;3.38;;
54125;SDS011;40360;52.992;6.796;2023-12-20T03:13:53;18.85;;;3.90;;
54125;SDS011;40360;52.992;6.796;2023-12-20T03:16:19;21.02;;;4.20;;
54125;SDS011;40360;52.992;6.796;2023-12-20T03:18:44;18.95;;;4.00;;
54125;SDS011;40360;52.992;6.796;2023-12-20T03:21:10;18.98;;;3.30;;
54125;SDS011;40360;52.992;6.796;2023-12-20T03:23:36;17.63;;;4.80;;
54125;SDS011;40360;52.992;6.796;2023-12-20T03:26:01;20.02;;;4.15;;
54125;SDS011;40360;52.992;6.796;2023-12-20T03:28:27;20.15;;;3.45;;
54125;SDS011;40360;52.992;6.796;2023-12-20T03:30:53;26.83;;;3.75;;
54125;SDS011;40360;52.992;6.796;2023-12-20T03:33:19;23.92;;;4.72;;
54125;SDS011;40360;52.992;6.796;2023-12-20T03:35:44;16.40;;;3.30;;
54125;SDS011;40360;52.992;6.796;2023-12-20T03:38:10;15.45;;;3.33;;
54125;SDS011;40360;52.992;6.796;2023-12-20T03:40:36;22.17;;;4.38;;
54125;SDS011;40360;52.992;6.796;2023-12-20T03:43:01;20.98;;;4.00;;
54125;SDS011;40360;52.992;6.796;2023-12-20T03:45:27;16.95;;;4.13;;
54125;SDS011;40360;52.992;6.796;2023-12-20T03:47:53;16.42;;;4.07;;
54125;SDS011;40360;52.992;6.796;2023-12-20T03:50:23;21.50;;;4.72;;
54125;SDS011;40360;52.992;6.796;2023-12-20T03:52:48;27.95;;;4.22;;
54125;SDS011;40360;52.992;6.796;2023-12-20T03:55:15;28.70;;;4.45;;
54125;SDS011;40360;52.992;6.796;2023-12-20T03:57:40;30.27;;;4.63;;
54125;SDS011;40360;52.992;6.796;2023-12-20T04:00:07;26.85;;;4.03;;
54125;SDS011;40360;52.992;6.796;2023-12-20T04:02:39;24.52;;;4.70;;
54125;SDS011;40360;52.992;6.796;2023-12-20T04:05:06;22.95;;;4.32;;
54125;SDS011;40360;52.992;6.796;2023-12-20T04:07:32;21.90;;;4.22;;
54125;SDS011;40360;52.992;6.796;2023-12-20T04:09:58;33.75;;;5.70;;
54125;SDS011;40360;52.992;6.796;2023-12-20T04:12:24;20.38;;;4.20;;
54125;SDS011;40360;52.992;6.796;2023-12-20T04:14:50;22.27;;;4.72;;
54125;SDS011;40360;52.992;6.796;2023-12-20T04:17:15;20.55;;;4.00;;
54125;SDS011;40360;52.992;6.796;2023-12-20T04:19:44;31.75;;;4.60;;
54125;SDS011;40360;52.992;6.796;2023-12-20T04:22:10;33.30;;;4.82;;
54125;SDS011;40360;52.992;6.796;2023-12-20T04:24:36;22.13;;;5.03;;
54125;SDS011;40360;52.992;6.796;2023-12-20T04:27:01;24.40;;;4.70;;
54125;SDS011;40360;52.992;6.796;2023-12-20T04:29:27;24.92;;;4.78;;
54125;SDS011;40360;52.992;6.796;2023-12-20T04:31:53;21.67;;;5.25;;
54125;SDS011;40360;52.992;6.796;2023-12-20T04:34:19;23.45;;;3.90;;
54125;SDS011;40360;52.992;6.796;2023-12-20T04:36:45;26.73;;;6.18;;
54125;SDS011;40360;52.992;6.796;2023-12-20T04:39:11;33.65;;;6.30;;
54125;SDS011;40360;52.992;6.796;2023-12-20T04:41:38;21.10;;;4.90;;
54125;SDS011;40360;52.992;6.796;2023-12-20T04:44:03;21.58;;;5.15;;
54125;SDS011;40360;52.992;6.796;2023-12-20T04:46:29;24.38;;;5.20;;
54125;SDS011;40360;52.992;6.796;2023-12-20T04:48:55;25.10;;;4.15;;
54125;SDS011;40360;52.992;6.796;2023-12-20T04:51:21;21.60;;;5.68;;
54125;SDS011;40360;52.992;6.796;2023-12-20T04:53:46;32.72;;;4.78;;
54125;SDS011;40360;52.992;6.796;2023-12-20T04:56:12;24.10;;;5.28;;
54125;SDS011;40360;52.992;6.796;2023-12-20T04:58:38;22.35;;;5.47;;
54125;SDS011;40360;52.992;6.796;2023-12-20T05:01:05;27.52;;;5.97;;
54125;SDS011;40360;52.992;6.796;2023-12-20T05:03:31;23.38;;;4.70;;
54125;SDS011;40360;52.992;6.796;2023-12-20T05:05:58;17.48;;;4.70;;
54125;SDS011;40360;52.992;6.796;2023-12-20T05:08:23;23.83;;;6.05;;
54125;SDS011;40360;52.992;6.796;2023-12-20T05:10:50;23.05;;;5.05;;
54125;SDS011;40360;52.992;6.796;2023-12-20T05:13:16;23.13;;;4.38;;
54125;SDS011;40360;52.992;6.796;2023-12-20T05:15:42;26.65;;;5.07;;
54125;SDS011;40360;52.992;6.796;2023-12-20T05:18:08;30.92;;;5.90;;
54125;SDS011;40360;52.992;6.796;2023-12-20T05:20:33;22.08;;;4.43;;
54125;SDS011;40360;52.992;6.796;2023-12-20T05:22:59;22.52;;;4.65;;
54125;SDS011;40360;52.992;6.796;2023-12-20T05:25:24;24.42;;;6.07;;
54125;SDS011;40360;52.992;6.796;2023-12-20T05:27:50;26.42;;;4.78;;
54125;SDS011;40360;52.992;6.796;2023-12-20T05:30:16;26.55;;;6.03;;
54125;SDS011;40360;52.992;6.796;2023-12-20T05:32:41;24.17;;;5.13;;
54125;SDS011;40360;52.992;6.796;2023-12-20T05:35:07;21.92;;;4.10;;
54125;SDS011;40360;52.992;6.796;2023-12-20T05:37:33;21.45;;;5.22;;
54125;SDS011;40360;52.992;6.796;2023-12-20T05:39:58;21.17;;;4.28;;
54125;SDS011;40360;52.992;6.796;2023-12-20T05:42:24;28.75;;;6.78;;
54125;SDS011;40360;52.992;6.796;2023-12-20T05:44:50;27.02;;;5.00;;
54125;SDS011;40360;52.992;6.796;2023-12-20T05:47:15;33.58;;;5.50;;
54125;SDS011;40360;52.992;6.796;2023-12-20T05:49:41;20.63;;;4.65;;
54125;SDS011;40360;52.992;6.796;2023-12-20T05:52:08;21.10;;;4.45;;
54125;SDS011;40360;52.992;6.796;2023-12-20T05:54:33;26.63;;;5.88;;
54125;SDS011;40360;52.992;6.796;2023-12-20T05:56:59;28.73;;;6.57;;
54125;SDS011;40360;52.992;6.796;2023-12-20T05:59:25;22.65;;;4.05;;
54125;SDS011;40360;52.992;6.796;2023-12-20T06:01:51;29.85;;;5.40;;
54125;SDS011;40360;52.992;6.796;2023-12-20T06:04:17;21.67;;;7.20;;
54125;SDS011;40360;52.992;6.796;2023-12-20T06:06:43;25.85;;;6.32;;
54125;SDS011;40360;52.992;6.796;2023-12-20T06:09:09;27.17;;;4.00;;
54125;SDS011;40360;52.992;6.796;2023-12-20T06:11:35;26.98;;;4.95;;
54125;SDS011;40360;52.992;6.796;2023-12-20T06:14:00;24.02;;;5.25;;
54125;SDS011;40360;52.992;6.796;2023-12-20T06:16:26;26.65;;;5.50;;
54125;SDS011;40360;52.992;6.796;2023-12-20T06:18:52;20.15;;;5.22;;
54125;SDS011;40360;52.992;6.796;2023-12-20T06:21:17;19.83;;;4.57;;
54125;SDS011;40360;52.992;6.796;2023-12-20T06:23:43;28.63;;;6.03;;
54125;SDS011;40360;52.992;6.796;2023-12-20T06:26:09;23.83;;;4.78;;
54125;SDS011;40360;52.992;6.796;2023-12-20T06:28:34;25.98;;;4.57;;
54125;SDS011;40360;52.992;6.796;2023-12-20T06:31:00;20.75;;;4.68;;
54125;SDS011;40360;52.992;6.796;2023-12-20T06:33:26;23.00;;;4.65;;
54125;SDS011;40360;52.992;6.796;2023-12-20T06:35:52;21.17;;;5.55;;
54125;SDS011;40360;52.992;6.796;2023-12-20T06:38:18;19.65;;;4.03;;
54125;SDS011;40360;52.992;6.796;2023-12-20T06:40:44;22.33;;;5.43;;
54125;SDS011;40360;52.992;6.796;2023-12-20T06:43:13;33.33;;;6.35;;
54125;SDS011;40360;52.992;6.796;2023-12-20T06:45:39;24.00;;;5.00;;
54125;SDS011;40360;52.992;6.796;2023-12-20T06:48:05;29.08;;;5.80;;
54125;SDS011;40360;52.992;6.796;2023-12-20T06:50:31;26.13;;;6.05;;
54125;SDS011;40360;52.992;6.796;2023-12-20T06:52:57;25.88;;;4.80;;
54125;SDS011;40360;52.992;6.796;2023-12-20T06:55:23;23.48;;;5.55;;
54125;SDS011;40360;52.992;6.796;2023-12-20T06:57:48;25.50;;;5.28;;
54125;SDS011;40360;52.992;6.796;2023-12-20T07:00:14;25.85;;;5.10;;
54125;SDS011;40360;52.992;6.796;2023-12-20T07:02:40;23.50;;;5.10;;
54125;SDS011;40360;52.992;6.796;2023-12-20T07:22:47;22.63;;;4.45;;
54125;SDS011;40360;52.992;6.796;2023-12-20T07:25:13;26.23;;;5.30;;
54125;SDS011;40360;52.992;6.796;2023-12-20T07:27:38;22.38;;;4.60;;
54125;SDS011;40360;52.992;6.796;2023-12-20T07:30:04;23.83;;;4.90;;
54125;SDS011;40360;52.992;6.796;2023-12-20T07:32:30;28.13;;;5.45;;
54125;SDS011;40360;52.992;6.796;2023-12-20T07:34:57;23.70;;;4.57;;
54125;SDS011;40360;52.992;6.796;2023-12-20T07:37:22;24.83;;;4.93;;
54125;SDS011;40360;52.992;6.796;2023-12-20T07:39:48;31.73;;;5.78;;
54125;SDS011;40360;52.992;6.796;2023-12-20T07:42:14;19.05;;;5.43;;
54125;SDS011;40360;52.992;6.796;2023-12-20T07:44:39;22.60;;;5.32;;
54125;SDS011;40360;52.992;6.796;2023-12-20T07:47:05;18.63;;;4.15;;
54125;SDS011;40360;52.992;6.796;2023-12-20T07:49:31;27.38;;;4.50;;
54125;SDS011;40360;52.992;6.796;2023-12-20T07:51:57;22.75;;;4.60;;
54125;SDS011;40360;52.992;6.796;2023-12-20T07:54:22;24.42;;;4.47;;
54125;SDS011;40360;52.992;6.796;2023-12-20T07:56:48;22.80;;;5.07;;
54125;SDS011;40360;52.992;6.796;2023-12-20T07:59:14;26.08;;;6.78;;
54125;SDS011;40360;52.992;6.796;2023-12-20T08:01:40;19.17;;;5.65;;
54125;SDS011;40360;52.992;6.796;2023-12-20T08:04:05;19.55;;;5.80;;
54125;SDS011;40360;52.992;6.796;2023-12-20T08:06:31;26.13;;;6.40;;
54125;SDS011;40360;52.992;6.796;2023-12-20T08:08:56;24.75;;;5.32;;
54125;SDS011;40360;52.992;6.796;2023-12-20T08:11:22;23.65;;;5.43;;
54125;SDS011;40360;52.992;6.796;2023-12-20T08:13:48;32.53;;;6.22;;
54125;SDS011;40360;52.992;6.796;2023-12-20T08:16:14;24.48;;;5.88;;
54125;SDS011;40360;52.992;6.796;2023-12-20T08:18:40;22.25;;;4.50;;
54125;SDS011;40360;52.992;6.796;2023-12-20T08:21:07;22.73;;;5.32;;
54125;SDS011;40360;52.992;6.796;2023-12-20T08:23:33;25.40;;;5.90;;
54125;SDS011;40360;52.992;6.796;2023-12-20T08:26:03;29.13;;;5.55;;
54125;SDS011;40360;52.992;6.796;2023-12-20T08:28:32;24.17;;;5.90;;
54125;SDS011;40360;52.992;6.796;2023-12-20T08:30:59;21.75;;;5.25;;
54125;SDS011;40360;52.992;6.796;2023-12-20T08:33:25;27.05;;;5.78;;
54125;SDS011;40360;52.992;6.796;2023-12-20T08:35:50;22.23;;;5.03;;
54125;SDS011;40360;52.992;6.796;2023-12-20T08:38:16;26.90;;;5.55;;
54125;SDS011;40360;52.992;6.796;2023-12-20T08:40:43;19.05;;;4.47;;
54125;SDS011;40360;52.992;6.796;2023-12-20T08:43:09;24.08;;;5.25;;
54125;SDS011;40360;52.992;6.796;2023-12-20T08:45:35;21.88;;;4.18;;
54125;SDS011;40360;52.992;6.796;2023-12-20T08:48:00;28.90;;;5.07;;
54125;SDS011;40360;52.992;6.796;2023-12-20T08:50:26;11.80;;;3.10;;
54125;SDS011;40360;52.992;6.796;2023-12-20T08:52:52;6.72;;;2.38;;
54125;SDS011;40360;52.992;6.796;2023-12-20T08:55:18;12.40;;;3.13;;
54125;SDS011;40360;52.992;6.796;2023-12-20T08:57:44;10.90;;;2.60;;
54125;SDS011;40360;52.992;6.796;2023-12-20T09:00:10;14.65;;;3.53;;
54125;SDS011;40360;52.992;6.796;2023-12-20T09:02:36;12.82;;;3.05;;
54125;SDS011;40360;52.992;6.796;2023-12-20T09:05:02;14.00;;;4.13;;
54125;SDS011;40360;52.992;6.796;2023-12-20T09:07:28;19.08;;;3.47;;
54125;SDS011;40360;52.992;6.796;2023-12-20T09:09:57;14.40;;;2.85;;
54125;SDS011;40360;52.992;6.796;2023-12-20T09:12:22;19.08;;;4.50;;
54125;SDS011;40360;52.992;6.796;2023-12-20T09:14:49;18.80;;;4.63;;
54125;SDS011;40360;52.992;6.796;2023-12-20T09:17:16;21.13;;;5.55;;
54125;SDS011;40360;52.992;6.796;2023-12-20T09:19:43;18.38;;;4.30;;
54125;SDS011;40360;52.992;6.796;2023-12-20T09:22:09;19.08;;;4.82;;
54125;SDS011;40360;52.992;6.796;2023-12-20T09:24:35;22.33;;;6.07;;
54125;SDS011;40360;52.992;6.796;2023-12-20T09:27:01;22.10;;;4.13;;
54125;SDS011;40360;52.992;6.796;2023-12-20T09:29:27;20.95;;;5.18;;
54125;SDS011;40360;52.992;6.796;2023-12-20T09:31:53;20.83;;;4.30;;
54125;SDS011;40360;52.992;6.796;2023-12-20T09:34:19;6.57;;;1.58;;
54125;SDS011;40360;52.992;6.796;2023-12-20T09:36:45;7.18;;;1.77;;
54125;SDS011;40360;52.992;6.796;2023-12-20T09:39:12;10.82;;;3.20;;
54125;SDS011;40360;52.992;6.796;2023-12-20T09:41:45;11.00;;;1.90;;
54125;SDS011;40360;52.992;6.796;2023-12-20T09:44:35;7.07;;;1.48;;
54125;SDS011;40360;52.992;6.796;2023-12-20T09:47:05;8.00;;;1.45;;
54125;SDS011;40360;52.992;6.796;2023-12-20T09:49:32;4.53;;;1.50;;
54125;SDS011;40360;52.992;6.796;2023-12-20T09:51:58;4.03;;;1.23;;
54125;SDS011;40360;52.992;6.796;2023-12-20T09:54:25;7.70;;;1.88;;
54125;SDS011;40360;52.992;6.796;2023-12-20T09:56:53;5.90;;;1.63;;
54125;SDS011;40360;52.992;6.796;2023-12-20T09:59:19;10.80;;;1.45;;
54125;SDS011;40360;52.992;6.796;2023-12-20T10:01:44;6.68;;;1.20;;
54125;SDS011;40360;52.992;6.796;2023-12-20T10:04:11;7.97;;;1.02;;
54125;SDS011;40360;52.992;6.796;2023-12-20T10:06:39;8.70;;;1.30;;
54125;SDS011;40360;52.992;6.796;2023-12-20T10:09:05;5.55;;;1.35;;
54125;SDS011;40360;52.992;6.796;2023-12-20T10:11:31;7.30;;;1.40;;
54125;SDS011;40360;52.992;6.796;2023-12-20T10:14:00;5.53;;;1.73;;
54125;SDS011;40360;52.992;6.796;2023-12-20T10:16:26;8.80;;;1.98;;
54125;SDS011;40360;52.992;6.796;2023-12-20T10:18:53;7.95;;;2.13;;
54125;SDS011;40360;52.992;6.796;2023-12-20T10:21:19;8.90;;;1.52;;
54125;SDS011;40360;52.992;6.796;2023-12-20T10:23:45;7.47;;;1.83;;
54125;SDS011;40360;52.992;6.796;2023-12-20T10:26:19;5.43;;;1.30;;
54125;SDS011;40360;52.992;6.796;2023-12-20T10:28:55;9.60;;;2.03;;
54125;SDS011;40360;52.992;6.796;2023-12-20T10:31:31;6.88;;;1.60;;
54125;SDS011;40360;52.992;6.796;2023-12-20T10:33:58;12.10;;;2.03;;
54125;SDS011;40360;52.992;6.796;2023-12-20T10:36:25;11.05;;;3.00;;
54125;SDS011;40360;52.992;6.796;2023-12-20T10:38:53;7.70;;;1.48;;
54125;SDS011;40360;52.992;6.796;2023-12-20T10:41:21;9.90;;;1.67;;
54125;SDS011;40360;52.992;6.796;2023-12-20T10:43:50;10.85;;;1.70;;
54125;SDS011;40360;52.992;6.796;2023-12-20T10:48:53;10.20;;;1.75;;
54125;SDS011;40360;52.992;6.796;2023-12-20T10:51:20;10.25;;;1.75;;
54125;SDS011;40360;52.992;6.796;2023-12-20T10:53:48;7.50;;;1.40;;
54125;SDS011;40360;52.992;6.796;2023-12-20T10:56:17;7.90;;;1.92;;
54125;SDS011;40360;52.992;6.796;2023-12-20T10:58:45;9.75;;;1.92;;
54125;SDS011;40360;52.992;6.796;2023-12-20T11:01:13;7.10;;;1.25;;
54125;SDS011;40360;52.992;6.796;2023-12-20T11:03:52;10.02;;;1.75;;
54125;SDS011;40360;52.992;6.796;2023-12-20T11:14:16;12.45;;;1.92;;
54125;SDS011;40360;52.992;6.796;2023-12-20T11:16:47;8.48;;;1.38;;
54125;SDS011;40360;52.992;6.796;2023-12-20T11:19:13;14.27;;;3.00;;
54125;SDS011;40360;52.992;6.796;2023-12-20T11:21:39;14.95;;;1.83;;
54125;SDS011;40360;52.992;6.796;2023-12-20T11:24:05;8.13;;;2.17;;
54125;SDS011;40360;52.992;6.796;2023-12-20T11:26:31;10.95;;;1.85;;
54125;SDS011;40360;52.992;6.796;2023-12-20T11:32:02;9.98;;;2.05;;
54125;SDS011;40360;52.992;6.796;2023-12-20T11:34:46;9.40;;;1.90;;
54125;SDS011;40360;52.992;6.796;2023-12-20T11:37:11;12.50;;;2.17;;
54125;SDS011;40360;52.992;6.796;2023-12-20T11:39:38;13.38;;;2.17;;
54125;SDS011;40360;52.992;6.796;2023-12-20T11:42:04;14.40;;;2.88;;
54125;SDS011;40360;52.992;6.796;2023-12-20T11:44:31;13.52;;;2.55;;
54125;SDS011;40360;52.992;6.796;2023-12-20T11:46:57;11.18;;;1.92;;
54125;SDS011;40360;52.992;6.796;2023-12-20T11:49:27;17.70;;;2.55;;
54125;SDS011;40360;52.992;6.796;2023-12-20T11:51:54;9.18;;;3.60;;
54125;SDS011;40360;52.992;6.796;2023-12-20T11:54:20;14.88;;;2.10;;
54125;SDS011;40360;52.992;6.796;2023-12-20T11:56:46;14.52;;;2.67;;
54125;SDS011;40360;52.992;6.796;2023-12-20T11:59:12;15.48;;;2.22;;
54125;SDS011;40360;52.992;6.796;2023-12-20T12:01:38;12.25;;;2.28;;
54125;SDS011;40360;52.992;6.796;2023-12-20T12:04:04;13.82;;;3.85;;
54125;SDS011;40360;52.992;6.796;2023-12-20T12:06:30;9.98;;;1.98;;
54125;SDS011;40360;52.992;6.796;2023-12-20T12:08:56;9.68;;;2.20;;
54125;SDS011;40360;52.992;6.796;2023-12-20T12:11:22;9.40;;;2.20;;
54125;SDS011;40360;52.992;6.796;2023-12-20T12:13:48;11.95;;;2.13;;
54125;SDS011;40360;52.992;6.796;2023-12-20T12:16:17;11.35;;;2.92;;
54125;SDS011;40360;52.992;6.796;2023-12-20T12:18:45;10.80;;;3.00;;
54125;SDS011;40360;52.992;6.796;2023-12-20T12:21:10;13.20;;;2.53;;
54125;SDS011;40360;52.992;6.796;2023-12-20T12:23:45;15.15;;;2.40;;
54125;SDS011;40360;52.992;6.796;2023-12-20T12:26:11;7.53;;;1.58;;
54125;SDS011;40360;52.992;6.796;2023-12-20T12:28:39;11.27;;;2.33;;
54125;SDS011;40360;52.992;6.796;2023-12-20T12:31:06;17.40;;;2.20;;
54125;SDS011;40360;52.992;6.796;2023-12-20T12:33:31;10.23;;;2.67;;
54125;SDS011;40360;52.992;6.796;2023-12-20T12:35:57;11.13;;;2.45;;
54125;SDS011;40360;52.992;6.796;2023-12-20T12:38:24;18.02;;;2.30;;
54125;SDS011;40360;52.992;6.796;2023-12-20T12:40:50;11.68;;;3.67;;
54125;SDS011;40360;52.992;6.796;2023-12-20T12:43:18;16.27;;;4.00;;
54125;SDS011;40360;52.992;6.796;2023-12-20T12:45:44;9.43;;;2.47;;
54125;SDS011;40360;52.992;6.796;2023-12-20T12:48:10;11.65;;;2.60;;
54125;SDS011;40360;52.992;6.796;2023-12-20T12:50:36;8.48;;;2.58;;
54125;SDS011;40360;52.992;6.796;2023-12-20T12:53:01;14.52;;;2.58;;
54125;SDS011;40360;52.992;6.796;2023-12-20T12:55:27;13.15;;;2.42;;
54125;SDS011;40360;52.992;6.796;2023-12-20T12:57:53;12.68;;;2.05;;
54125;SDS011;40360;52.992;6.796;2023-12-20T13:00:19;13.75;;;3.25;;
54125;SDS011;40360;52.992;6.796;2023-12-20T13:02:45;13.73;;;3.17;;
54125;SDS011;40360;52.992;6.796;2023-12-20T13:05:11;9.50;;;2.65;;
54125;SDS011;40360;52.992;6.796;2023-12-20T13:07:36;16.42;;;2.80;;
54125;SDS011;40360;52.992;6.796;2023-12-20T13:10:02;16.20;;;3.13;;
54125;SDS011;40360;52.992;6.796;2023-12-20T13:12:29;13.02;;;3.90;;
54125;SDS011;40360;52.992;6.796;2023-12-20T13:14:54;12.20;;;2.80;;
54125;SDS011;40360;52.992;6.796;2023-12-20T13:17:20;9.10;;;1.75;;
54125;SDS011;40360;52.992;6.796;2023-12-20T13:19:46;17.88;;;3.15;;
54125;SDS011;40360;52.992;6.796;2023-12-20T13:22:11;15.77;;;3.10;;
54125;SDS011;40360;52.992;6.796;2023-12-20T13:24:37;16.70;;;2.30;;
54125;SDS011;40360;52.992;6.796;2023-12-20T13:27:03;13.07;;;2.97;;
54125;SDS011;40360;52.992;6.796;2023-12-20T13:29:28;12.02;;;2.72;;
54125;SDS011;40360;52.992;6.796;2023-12-20T13:31:54;10.75;;;2.47;;
54125;SDS011;40360;52.992;6.796;2023-12-20T13:34:20;12.73;;;2.67;;
54125;SDS011;40360;52.992;6.796;2023-12-20T13:36:46;11.80;;;2.80;;
54125;SDS011;40360;52.992;6.796;2023-12-20T13:39:13;14.40;;;2.15;;
54125;SDS011;40360;52.992;6.796;2023-12-20T13:41:39;9.60;;;1.70;;
54125;SDS011;40360;52.992;6.796;2023-12-20T13:44:05;12.30;;;2.45;;
54125;SDS011;40360;52.992;6.796;2023-12-20T13:46:30;12.80;;;3.17;;
54125;SDS011;40360;52.992;6.796;2023-12-20T13:48:56;13.70;;;2.20;;
54125;SDS011;40360;52.992;6.796;2023-12-20T13:51:25;7.43;;;2.58;;
54125;SDS011;40360;52.992;6.796;2023-12-20T13:53:51;11.25;;;1.70;;
54125;SDS011;40360;52.992;6.796;2023-12-20T13:56:16;5.95;;;1.40;;
54125;SDS011;40360;52.992;6.796;2023-12-20T13:58:43;8.77;;;2.00;;
54125;SDS011;40360;52.992;6.796;2023-12-20T14:01:09;9.27;;;1.65;;
54125;SDS011;40360;52.992;6.796;2023-12-20T14:03:36;13.27;;;1.98;;
54125;SDS011;40360;52.992;6.796;2023-12-20T14:06:01;7.60;;;1.67;;
54125;SDS011;40360;52.992;6.796;2023-12-20T14:08:27;7.65;;;1.52;;
54125;SDS011;40360;52.992;6.796;2023-12-20T14:10:53;10.20;;;1.65;;
54125;SDS011;40360;52.992;6.796;2023-12-20T14:13:19;11.88;;;2.58;;
54125;SDS011;40360;52.992;6.796;2023-12-20T14:15:46;8.55;;;1.75;;
54125;SDS011;40360;52.992;6.796;2023-12-20T14:18:13;10.27;;;2.33;;
54125;SDS011;40360;52.992;6.796;2023-12-20T14:20:40;5.22;;;1.40;;
54125;SDS011;40360;52.992;6.796;2023-12-20T14:23:07;11.23;;;2.08;;
54125;SDS011;40360;52.992;6.796;2023-12-20T14:25:36;6.53;;;1.33;;
54125;SDS011;40360;52.992;6.796;2023-12-20T14:28:04;11.15;;;1.65;;
54125;SDS011;40360;52.992;6.796;2023-12-20T14:30:30;9.23;;;1.88;;
54125;SDS011;40360;52.992;6.796;2023-12-20T14:32:57;7.28;;;1.67;;
54125;SDS011;40360;52.992;6.796;2023-12-20T14:35:22;6.25;;;1.65;;
54125;SDS011;40360;52.992;6.796;2023-12-20T14:37:48;7.55;;;2.28;;
54125;SDS011;40360;52.992;6.796;2023-12-20T14:40:15;8.35;;;1.95;;
54125;SDS011;40360;52.992;6.796;2023-12-20T14:42:42;11.32;;;1.40;;
54125;SDS011;40360;52.992;6.796;2023-12-20T14:45:08;7.47;;;2.10;;
54125;SDS011;40360;52.992;6.796;2023-12-20T14:47:34;4.38;;;1.25;;
54125;SDS011;40360;52.992;6.796;2023-12-20T14:50:04;6.90;;;2.30;;
54125;SDS011;40360;52.992;6.796;2023-12-20T14:52:30;8.02;;;1.58;;
54125;SDS011;40360;52.992;6.796;2023-12-20T14:54:57;12.15;;;2.88;;
54125;SDS011;40360;52.992;6.796;2023-12-20T14:57:22;11.10;;;2.25;;
54125;SDS011;40360;52.992;6.796;2023-12-20T14:59:48;10.77;;;1.98;;
54125;SDS011;40360;52.992;6.796;2023-12-20T15:02:14;5.90;;;1.80;;